Time;durP1;ratioP1;P1;durP2;ratioP2;P2;SDS_P1;SDS_P2;PMS_P1;PMS_P2;Temp;Humidity;BMP_temperature;BMP_pressure;BME280_temperature;BME280_humidity;BME280_pressure;Samples;Min_cycle;Max_cycle;Signal;HPM_P1;HPM_P2
2021/04/29 00:00:21;;;;;;;13.53;8.47;;;;;;;12.40;100.00;101259.06;4934691;29;20244;-69
2021/04/29 00:02:47;;;;;;;8.23;6.43;;;;;;;12.40;100.00;101270.47;4934587;29;20484;-71
2021/04/29 00:05:17;;;;;;;12.63;7.10;;;;;;;12.34;100.00;101268.22;4934004;29;20236;-71
2021/04/29 00:07:43;;;;;;;10.90;7.03;;;;;;;12.29;100.00;101272.94;4940070;29;20597;-72
2021/04/29 00:10:13;;;;;;;12.50;7.00;;;;;;;12.37;100.00;101275.06;4934419;29;20901;-71
2021/04/29 00:12:38;;;;;;;11.20;6.03;;;;;;;12.38;100.00;101274.13;4915295;29;20536;-70
2021/04/29 00:15:05;;;;;;;14.37;7.00;;;;;;;12.37;100.00;101268.00;4927388;29;20437;-69
2021/04/29 00:17:31;;;;;;;12.43;8.13;;;;;;;12.34;100.00;101257.69;4933058;29;20176;-71
2021/04/29 00:19:56;;;;;;;13.50;8.53;;;;;;;12.45;100.00;101255.16;4934344;29;20393;-71
2021/04/29 00:22:22;;;;;;;9.80;7.30;;;;;;;12.40;100.00;101257.28;4933685;29;20171;-72
2021/04/29 00:24:48;;;;;;;8.43;6.00;;;;;;;12.40;100.00;101256.44;4933802;29;20193;-71
2021/04/29 00:27:13;;;;;;;10.37;7.23;;;;;;;12.37;100.00;101262.72;4934445;29;20197;-70
2021/04/29 00:29:39;;;;;;;9.67;7.60;;;;;;;12.41;100.00;101269.50;4933952;29;20939;-70
2021/04/29 00:32:05;;;;;;;10.77;7.57;;;;;;;12.49;100.00;101271.63;4934815;29;20212;-70
2021/04/29 00:34:30;;;;;;;11.77;7.60;;;;;;;12.39;100.00;101265.25;4933866;29;20172;-72
2021/04/29 00:36:56;;;;;;;10.43;7.03;;;;;;;12.36;100.00;101262.84;4933272;29;20180;-71
2021/04/29 00:39:23;;;;;;;9.20;7.00;;;;;;;12.40;100.00;101262.56;4917006;29;20214;-69
2021/04/29 00:41:49;;;;;;;13.67;7.77;;;;;;;12.37;100.00;101261.91;4933895;29;20209;-70
2021/04/29 00:44:14;;;;;;;14.83;7.57;;;;;;;12.38;100.00;101258.31;4933768;29;20883;-72
2021/04/29 00:46:39;;;;;;;9.70;6.73;;;;;;;12.40;100.00;101259.06;4949251;29;20188;-69
2021/04/29 00:49:05;;;;;;;9.57;7.50;;;;;;;12.42;100.00;101263.28;4940632;28;20188;-72
2021/04/29 00:51:31;;;;;;;13.10;7.30;;;;;;;12.47;100.00;101260.38;4933773;29;20616;-69
2021/04/29 00:53:56;;;;;;;16.33;7.57;;;;;;;12.38;100.00;101260.94;4933689;29;20157;-68
2021/04/29 00:56:23;;;;;;;13.97;7.13;;;;;;;12.39;100.00;101263.50;4933209;29;20220;-70
2021/04/29 00:58:52;;;;;;;11.83;7.90;;;;;;;12.41;100.00;101274.78;4933492;29;20180;-72
2021/04/29 01:01:20;;;;;;;13.40;7.93;;;;;;;12.45;100.00;101260.44;4933547;29;20436;-69
2021/04/29 01:04:04;;;;;;;10.13;7.20;;;;;;;12.43;100.00;101264.97;4933932;29;20402;-71
2021/04/29 01:06:41;;;;;;;15.50;7.30;;;;;;;12.43;100.00;101261.50;4933730;29;20507;-69
2021/04/29 01:09:17;;;;;;;13.40;8.40;;;;;;;12.40;100.00;101264.34;4933716;29;20399;-71
2021/04/29 01:11:48;;;;;;;11.93;7.00;;;;;;;12.44;100.00;101257.91;4932188;29;20480;-71
2021/04/29 01:14:15;;;;;;;10.73;7.20;;;;;;;12.39;100.00;101276.69;4933416;29;20427;-72
2021/04/29 01:16:41;;;;;;;9.50;7.00;;;;;;;12.32;100.00;101288.56;4932257;29;20915;-70
2021/04/29 01:19:16;;;;;;;10.90;6.47;;;;;;;12.37;100.00;101283.81;4933728;29;20987;-68
2021/04/29 01:21:42;;;;;;;11.50;7.13;;;;;;;12.35;100.00;101290.97;4934069;29;20677;-70
2021/04/29 01:24:11;;;;;;;12.83;7.97;;;;;;;12.19;100.00;101282.41;4933123;29;20413;-71
2021/04/29 01:26:44;;;;;;;8.90;6.83;;;;;;;12.28;100.00;101283.59;4933228;29;20487;-70
2021/04/29 01:29:13;;;;;;;9.33;7.27;;;;;;;12.25;100.00;101279.38;4933105;29;20413;-70
2021/04/29 01:31:42;;;;;;;10.37;7.20;;;;;;;12.29;100.00;101274.72;4933400;29;20397;-72
2021/04/29 01:34:11;;;;;;;13.40;7.37;;;;;;;12.25;100.00;101274.09;4932424;29;20419;-70
2021/04/29 01:36:37;;;;;;;12.70;8.07;;;;;;;12.21;100.00;101273.44;4932034;29;20436;-70
2021/04/29 01:39:08;;;;;;;10.87;8.20;;;;;;;12.19;100.00;101264.78;4931316;29;20461;-73
2021/04/29 01:41:39;;;;;;;10.73;7.20;;;;;;;12.21;100.00;101269.97;4914386;29;20402;-72
2021/04/29 01:44:08;;;;;;;9.30;7.40;;;;;;;12.19;100.00;101270.06;4916060;29;20402;-70
2021/04/29 01:46:35;;;;;;;11.67;7.07;;;;;;;12.07;100.00;101265.56;4932047;29;20717;-72
2021/04/29 01:49:03;;;;;;;7.87;6.83;;;;;;;12.02;100.00;101270.31;4934071;29;20436;-72
2021/04/29 01:51:29;;;;;;;10.90;7.07;;;;;;;12.01;100.00;101271.22;4936544;29;20401;-72
2021/04/29 01:53:55;;;;;;;9.90;7.33;;;;;;;12.03;100.00;101273.78;4936172;29;20421;-72
2021/04/29 01:56:20;;;;;;;12.20;6.97;;;;;;;12.06;100.00;101260.41;4934613;29;21047;-71
2021/04/29 01:58:46;;;;;;;8.10;6.80;;;;;;;12.03;100.00;101269.38;4935830;29;20218;-71
2021/04/29 02:01:12;;;;;;;11.83;7.00;;;;;;;11.92;100.00;101264.78;4934104;29;20181;-72
2021/04/29 02:03:39;;;;;;;13.77;8.00;;;;;;;11.85;100.00;101260.00;4933856;29;20575;-71
2021/04/29 02:06:04;;;;;;;10.83;7.17;;;;;;;11.82;100.00;101258.41;4935821;29;20560;-72
2021/04/29 02:08:30;;;;;;;13.50;8.13;;;;;;;11.74;100.00;101260.66;4935322;29;21082;-71
2021/04/29 02:10:58;;;;;;;9.60;6.80;;;;;;;11.67;100.00;101261.97;4935539;29;20158;-71
2021/04/29 02:13:26;;;;;;;8.90;7.20;;;;;;;11.64;100.00;101262.19;4935973;29;20154;-70
2021/04/29 02:15:55;;;;;;;8.83;7.17;;;;;;;11.60;100.00;101258.88;4935890;29;20405;-72
2021/04/29 02:18:22;;;;;;;11.20;8.07;;;;;;;11.55;100.00;101258.31;4935528;29;20516;-71
2021/04/29 02:20:50;;;;;;;13.27;7.37;;;;;;;11.54;100.00;101261.91;4936047;29;20527;-70
2021/04/29 02:23:23;;;;;;;8.80;6.90;;;;;;;11.50;100.00;101272.72;4934061;29;20520;-71
2021/04/29 02:25:52;;;;;;;11.13;7.80;;;;;;;11.47;100.00;101270.28;4936431;29;20404;-71
2021/04/29 02:28:19;;;;;;;10.97;7.60;;;;;;;11.45;100.00;101266.91;4935415;29;20503;-70
2021/04/29 02:30:48;;;;;;;11.00;7.50;;;;;;;11.45;100.00;101270.38;4935941;29;20905;-71
2021/04/29 02:33:15;;;;;;;8.63;6.77;;;;;;;11.43;100.00;101276.69;4932603;29;20970;-69
2021/04/29 02:35:41;;;;;;;12.53;7.90;;;;;;;11.33;100.00;101279.84;4934935;29;20457;-71
2021/04/29 02:38:07;;;;;;;10.90;8.17;;;;;;;11.30;100.00;101274.78;4934650;29;21019;-71
2021/04/29 02:40:33;;;;;;;11.93;7.60;;;;;;;11.32;100.00;101279.94;4935483;29;20413;-70
2021/04/29 02:42:58;;;;;;;11.27;7.50;;;;;;;11.32;100.00;101279.94;4935298;29;20801;-71
2021/04/29 02:45:24;;;;;;;15.97;8.17;;;;;;;11.32;100.00;101279.94;4935105;29;20173;-68
2021/04/29 02:47:52;;;;;;;13.57;7.90;;;;;;;11.27;100.00;101287.28;4934218;29;20197;-69
2021/04/29 02:50:20;;;;;;;11.33;7.30;;;;;;;11.23;100.00;101291.03;4935583;29;20181;-71
2021/04/29 02:52:49;;;;;;;11.40;8.40;;;;;;;11.26;100.00;101288.22;4935775;29;20768;-70
2021/04/29 02:55:15;;;;;;;9.43;7.23;;;;;;;11.20;100.00;101278.09;4924795;29;20867;-69
2021/04/29 02:57:40;;;;;;;17.03;8.47;;;;;;;11.20;100.00;101288.59;4933937;29;22747;-69
2021/04/29 03:00:13;;;;;;;12.77;8.00;;;;;;;11.17;100.00;101284.34;4934804;29;20436;-69
2021/04/29 03:02:39;;;;;;;19.07;8.00;;;;;;;11.15;100.00;101278.34;4934048;29;20205;-69
2021/04/29 03:05:10;;;;;;;11.03;7.50;;;;;;;11.13;100.00;101292.53;4934486;29;20456;-70
2021/04/29 03:07:37;;;;;;;10.20;7.43;;;;;;;11.10;100.00;101294.41;4933253;29;20468;-71
2021/04/29 03:10:03;;;;;;;15.07;8.50;;;;;;;11.11;100.00;101300.53;4934335;29;20429;-70
2021/04/29 03:12:28;;;;;;;10.83;6.93;;;;;;;11.10;100.00;101298.81;4933918;29;20924;-70
2021/04/29 03:14:54;;;;;;;9.87;7.60;;;;;;;10.95;100.00;101310.25;4935275;29;20453;-70
2021/04/29 03:17:19;;;;;;;15.50;8.97;;;;;;;11.00;100.00;101311.66;4933992;29;20560;-69
2021/04/29 03:19:45;;;;;;;13.80;9.13;;;;;;;11.04;100.00;101309.72;4935413;29;20173;-70
2021/04/29 03:22:11;;;;;;;12.23;8.43;;;;;;;10.99;100.00;101322.28;4934649;29;20177;-72
2021/04/29 03:24:36;;;;;;;18.57;8.30;;;;;;;11.13;100.00;101322.31;4935021;29;20169;-71
2021/04/29 03:27:02;;;;;;;12.73;8.87;;;;;;;11.16;100.00;101331.78;4935133;29;20448;-71
2021/04/29 03:29:28;;;;;;;13.97;8.10;;;;;;;11.27;100.00;101334.66;4933731;29;20659;-72
2021/04/29 03:31:53;;;;;;;12.60;7.90;;;;;;;11.33;100.00;101340.34;4935136;29;20224;-71
2021/04/29 03:34:19;;;;;;;10.90;8.00;;;;;;;11.35;100.00;101353.44;4934774;29;20200;-71
2021/04/29 03:36:44;;;;;;;16.17;8.80;;;;;;;11.40;100.00;101354.84;4943205;29;20188;-71
2021/04/29 03:39:09;;;;;;;15.97;8.47;;;;;;;11.30;100.00;101351.06;4936051;29;20209;-72
2021/04/29 03:41:35;;;;;;;18.50;8.87;;;;;;;11.45;100.00;101343.19;4934580;29;20157;-72
2021/04/29 03:44:00;;;;;;;12.50;8.70;;;;;;;11.38;100.00;101340.94;4933618;29;20165;-71
2021/04/29 03:46:26;;;;;;;10.87;8.53;;;;;;;11.39;100.00;101347.88;4933009;29;20173;-72
2021/04/29 03:48:51;;;;;;;16.57;9.53;;;;;;;11.40;100.00;101346.94;4934093;29;20685;-71
2021/04/29 03:51:17;;;;;;;10.40;8.30;;;;;;;11.39;100.00;101354.94;4934269;29;20277;-72
2021/04/29 03:53:42;;;;;;;15.63;9.10;;;;;;;11.44;100.00;101338.88;4934541;29;20168;-73
2021/04/29 03:56:08;;;;;;;14.27;9.73;;;;;;;11.42;100.00;101338.97;4934810;28;20274;-71
2021/04/29 03:58:34;;;;;;;11.43;8.13;;;;;;;11.42;100.00;101343.41;4934508;29;20180;-72
2021/04/29 04:00:59;;;;;;;14.70;8.87;;;;;;;11.49;100.00;101347.34;4934014;29;20433;-73
2021/04/29 04:03:25;;;;;;;11.27;8.80;;;;;;;11.58;100.00;101337.09;4934308;29;20177;-71
2021/04/29 04:05:50;;;;;;;14.57;9.63;;;;;;;11.64;100.00;101331.47;4932024;29;20187;-71
2021/04/29 04:08:16;;;;;;;10.70;8.60;;;;;;;11.66;100.00;101329.56;4932155;29;20228;-70
2021/04/29 04:10:41;;;;;;;12.90;8.43;;;;;;;11.68;100.00;101327.69;4942929;28;20165;-70
2021/04/29 04:13:16;;;;;;;13.57;9.57;;;;;;;11.70;100.00;101342.53;4933407;29;20630;-70
2021/04/29 04:15:41;;;;;;;16.23;9.67;;;;;;;11.72;100.00;101346.78;4933858;29;20160;-72
2021/04/29 04:18:07;;;;;;;11.60;8.00;;;;;;;11.74;100.00;101342.25;4933016;29;20818;-71
2021/04/29 04:20:32;;;;;;;20.93;9.07;;;;;;;11.69;100.00;101341.69;4932945;29;20172;-73
2021/04/29 04:22:58;;;;;;;16.90;9.53;;;;;;;11.70;100.00;101340.75;4932105;29;20650;-71
2021/04/29 04:25:23;;;;;;;15.03;8.90;;;;;;;11.70;100.00;101343.38;4932829;29;20180;-70
2021/04/29 04:27:49;;;;;;;11.37;9.23;;;;;;;11.78;100.00;101345.53;4932358;29;20669;-69
2021/04/29 04:30:14;;;;;;;14.13;9.40;;;;;;;11.87;100.00;101355.56;4915696;29;20268;-71
2021/04/29 04:32:40;;;;;;;10.67;9.10;;;;;;;11.88;100.00;101351.97;4933813;29;20177;-69
2021/04/29 04:35:06;;;;;;;19.43;10.43;;;;;;;11.92;100.00;101340.28;4936896;29;20200;-70
2021/04/29 04:37:32;;;;;;;12.20;9.07;;;;;;;12.14;100.00;101345.06;4933783;29;20263;-68
2021/04/29 04:39:57;;;;;;;17.73;9.33;;;;;;;12.39;100.00;101350.47;4939614;29;20921;-69
2021/04/29 04:42:23;;;;;;;11.03;8.00;;;;;;;12.50;100.00;101357.66;4952762;29;20172;-70
2021/04/29 04:44:48;;;;;;;9.67;7.80;;;;;;;12.70;100.00;101351.94;4938954;29;20180;-69
2021/04/29 04:47:13;;;;;;;14.20;9.87;;;;;;;12.78;100.00;101356.72;4938823;29;20334;-71
2021/04/29 04:49:39;;;;;;;12.10;7.57;;;;;;;12.90;100.00;101355.03;4934448;29;20161;-71
2021/04/29 04:52:04;;;;;;;13.50;8.90;;;;;;;12.91;100.00;101352.28;4933399;29;20185;-70
2021/04/29 04:54:30;;;;;;;14.07;7.80;;;;;;;13.08;100.00;101353.81;4933188;29;20161;-70
2021/04/29 04:56:55;;;;;;;14.77;10.13;;;;;;;13.24;100.00;101365.06;4932977;29;20736;-70
2021/04/29 04:59:21;;;;;;;13.27;8.67;;;;;;;13.29;100.00;101367.38;4932244;29;20165;-69
2021/04/29 05:01:46;;;;;;;15.50;8.70;;;;;;;13.35;100.00;101369.59;4933006;29;20157;-71
2021/04/29 05:04:12;;;;;;;14.77;7.83;;;;;;;13.35;100.00;101368.75;4932372;29;20557;-71
2021/04/29 05:06:38;;;;;;;13.60;7.60;;;;;;;13.31;100.00;101370.78;4933557;29;20313;-69
2021/04/29 05:09:05;;;;;;;11.57;9.87;;;;;;;13.35;100.00;101374.03;4935230;29;20168;-72
2021/04/29 05:11:31;;;;;;;23.20;12.23;;;;;;;13.25;100.00;101373.81;4936443;29;20165;-69
2021/04/29 05:13:56;;;;;;;17.30;12.20;;;;;;;13.29;100.00;101372.66;4933839;29;20405;-70
2021/04/29 05:16:22;;;;;;;18.30;12.23;;;;;;;13.40;100.00;101378.06;4933885;29;20543;-69
2021/04/29 05:18:48;;;;;;;15.30;12.03;;;;;;;13.24;100.00;101372.97;4932920;29;20413;-69
2021/04/29 05:21:13;;;;;;;12.73;10.70;;;;;;;13.35;100.00;101374.88;4933026;29;20681;-70
2021/04/29 05:23:39;;;;;;;16.97;11.17;;;;;;;13.39;100.00;101378.16;4940136;29;20157;-69
2021/04/29 05:26:05;;;;;;;19.67;11.60;;;;;;;13.30;100.00;101384.91;4955502;29;20195;-71
2021/04/29 05:28:30;;;;;;;15.03;9.80;;;;;;;13.49;100.00;101377.41;4944643;29;20193;-70
2021/04/29 05:30:55;;;;;;;17.87;11.27;;;;;;;13.69;100.00;101375.22;4932935;29;20173;-70
2021/04/29 05:33:21;;;;;;;13.17;9.40;;;;;;;13.73;100.00;101385.44;4936339;29;20233;-70
2021/04/29 05:35:46;;;;;;;18.53;10.53;;;;;;;13.80;100.00;101384.06;4940107;29;20554;-70
2021/04/29 05:38:12;;;;;;;13.10;9.90;;;;;;;13.85;100.00;101381.09;4936739;29;20223;-70
2021/04/29 05:40:37;;;;;;;14.47;8.97;;;;;;;13.86;100.00;101388.06;4936195;29;20626;-70
2021/04/29 05:43:03;;;;;;;16.47;11.10;;;;;;;13.69;100.00;101396.34;4934515;29;20170;-70
2021/04/29 05:45:28;;;;;;;18.70;9.80;;;;;;;13.37;100.00;101402.00;4946705;29;20196;-70
2021/04/29 05:47:54;;;;;;;132.97;102.73;;;;;;;13.71;100.00;101403.19;4945151;29;20248;-70
2021/04/29 05:50:19;;;;;;;21.97;14.57;;;;;;;13.91;100.00;101403.63;4942613;29;20157;-70
2021/04/29 05:52:45;;;;;;;9.13;7.70;;;;;;;14.04;100.00;101407.06;4935853;29;20171;-72
2021/04/29 05:55:11;;;;;;;11.90;8.50;;;;;;;14.23;100.00;101396.88;4948448;29;20188;-72
2021/04/29 05:57:36;;;;;;;21.73;10.70;;;;;;;14.12;100.00;101404.72;4954630;28;20661;-69
2021/04/29 06:00:05;;;;;;;11.00;7.30;;;;;;;14.16;100.00;101406.19;4955201;29;20899;-71
2021/04/29 06:02:30;;;;;;;12.90;8.70;;;;;;;14.31;100.00;101409.56;4944940;29;20173;-71
2021/04/29 06:04:58;;;;;;;13.87;6.73;;;;;;;14.60;100.00;101405.69;4934689;29;20451;-70
2021/04/29 06:07:24;;;;;;;9.20;6.80;;;;;;;14.86;100.00;101411.69;4935617;29;20212;-73
2021/04/29 06:09:50;;;;;;;8.83;6.20;;;;;;;14.99;100.00;101406.34;4935280;29;20429;-69
2021/04/29 06:12:15;;;;;;;11.83;6.97;;;;;;;15.23;100.00;101396.53;4944081;29;20185;-69
2021/04/29 06:14:41;;;;;;;8.80;6.23;;;;;;;15.45;100.00;101398.41;4942747;29;20173;-70
2021/04/29 06:17:06;;;;;;;11.90;6.83;;;;;;;15.67;100.00;101397.63;4935606;29;20637;-70
2021/04/29 06:19:32;;;;;;;12.20;6.50;;;;;;;15.76;100.00;101402.19;4940253;29;20196;-69
2021/04/29 06:21:57;;;;;;;9.27;5.93;;;;;;;15.33;100.00;101396.69;4939797;29;20188;-71
2021/04/29 06:24:23;;;;;;;11.53;6.80;;;;;;;15.44;100.00;101395.88;4935725;29;20328;-69
2021/04/29 06:26:48;;;;;;;14.30;7.40;;;;;;;15.79;100.00;101401.09;4935321;29;20215;-69
2021/04/29 06:29:14;;;;;;;8.10;5.80;;;;;;;15.94;100.00;101399.06;4934439;29;20259;-69
2021/04/29 06:31:41;;;;;;;11.73;6.90;;;;;;;16.19;100.00;101406.78;4934078;29;20280;-71
2021/04/29 06:34:07;;;;;;;10.43;8.20;;;;;;;15.93;100.00;101405.34;4935208;29;20657;-69
2021/04/29 06:36:33;;;;;;;26.30;13.37;;;;;;;15.70;100.00;101401.84;4935319;29;20420;-70
2021/04/29 06:39:04;;;;;;;24.83;16.40;;;;;;;15.66;100.00;101409.19;4935504;29;20447;-71
2021/04/29 06:41:30;;;;;;;13.40;9.00;;;;;;;15.79;100.00;101404.63;4935150;29;20261;-69
2021/04/29 06:43:55;;;;;;;13.00;8.23;;;;;;;16.15;100.00;101405.31;4935341;29;20488;-71
2021/04/29 06:46:21;;;;;;;11.90;8.30;;;;;;;16.32;100.00;101398.66;4949262;29;20176;-71
2021/04/29 06:48:46;;;;;;;12.47;7.87;;;;;;;16.27;100.00;101401.72;4935956;29;20226;-70
2021/04/29 06:51:12;;;;;;;15.43;7.23;;;;;;;16.23;100.00;101408.22;4933226;29;20177;-70
2021/04/29 06:53:37;;;;;;;14.10;9.03;;;;;;;16.22;100.00;101408.34;4934559;29;20173;-73
2021/04/29 06:56:03;;;;;;;10.80;7.00;;;;;;;16.17;100.00;101403.41;4934717;29;20827;-70
2021/04/29 06:58:31;;;;;;;12.67;7.90;;;;;;;15.39;100.00;101406.81;4934846;29;20612;-70
2021/04/29 07:00:56;;;;;;;15.73;9.10;;;;;;;15.35;100.00;101405.38;4934771;29;20165;-69
2021/04/29 07:03:22;;;;;;;8.63;6.90;;;;;;;15.35;100.00;101404.53;4933481;29;20798;-71
2021/04/29 07:05:47;;;;;;;15.20;8.50;;;;;;;14.82;100.00;101410.25;4934400;29;20173;-70
2021/04/29 07:08:14;;;;;;;16.10;10.67;;;;;;;14.80;100.00;101421.88;4934945;29;20196;-71
2021/04/29 07:10:39;;;;;;;17.33;8.60;;;;;;;14.62;100.00;101424.06;4934408;29;20176;-70
2021/04/29 07:13:06;;;;;;;13.90;8.90;;;;;;;14.69;100.00;101425.31;4934117;29;20433;-70
2021/04/29 07:15:31;;;;;;;19.57;9.03;;;;;;;14.87;100.00;101417.81;4934499;29;20212;-69
2021/04/29 07:17:58;;;;;;;16.20;8.17;;;;;;;15.09;100.00;101417.06;4933750;29;20929;-70
2021/04/29 07:20:23;;;;;;;18.37;8.80;;;;;;;15.09;100.00;101417.91;4948693;29;20681;-68
2021/04/29 07:22:49;;;;;;;15.50;10.00;;;;;;;15.07;100.00;101409.25;4936080;29;20441;-70
2021/04/29 07:25:14;;;;;;;11.87;7.53;;;;;;;15.35;100.00;101417.78;4945533;29;20243;-70
2021/04/29 07:27:40;;;;;;;16.20;8.47;;;;;;;15.36;100.00;101422.94;4934769;29;20199;-69
2021/04/29 07:30:07;;;;;;;11.90;8.00;;;;;;;15.47;100.00;101416.81;4931345;29;20613;-71
2021/04/29 07:32:33;;;;;;;13.10;8.40;;;;;;;15.61;100.00;101421.06;4934428;29;20724;-70
2021/04/29 07:34:59;;;;;;;12.10;7.63;;;;;;;15.66;100.00;101417.13;4934244;29;20429;-69
2021/04/29 07:37:24;;;;;;;11.43;7.00;;;;;;;15.53;100.00;101427.78;4935116;29;20191;-70
2021/04/29 07:39:50;;;;;;;10.30;7.43;;;;;;;15.65;100.00;101435.81;4934270;29;20420;-72
2021/04/29 07:42:16;;;;;;;9.13;6.53;;;;;;;15.64;100.00;101439.41;4933798;29;20164;-69
2021/04/29 07:44:41;;;;;;;10.67;6.83;;;;;;;15.68;100.00;101436.41;4932543;29;20165;-69
2021/04/29 07:47:07;;;;;;;9.93;6.87;;;;;;;15.67;100.00;101431.22;4934238;29;20189;-69
2021/04/29 07:49:32;;;;;;;10.47;6.63;;;;;;;15.67;100.00;101437.38;4934518;29;20162;-68
2021/04/29 07:51:58;;;;;;;10.50;5.90;;;;;;;15.75;100.00;101429.66;4933526;29;20168;-70
2021/04/29 07:54:23;;;;;;;10.73;6.57;;;;;;;15.82;100.00;101428.22;4933844;29;20209;-72
2021/04/29 07:56:49;;;;;;;9.30;5.40;;;;;;;15.86;100.00;101430.63;4931751;29;20225;-70
2021/04/29 07:59:15;;;;;;;10.83;5.70;;;;;;;15.81;100.00;101434.50;4934343;29;20162;-71
2021/04/29 08:01:41;;;;;;;10.10;5.60;;;;;;;15.86;100.00;101427.97;4931689;29;20193;-71
2021/04/29 08:04:07;;;;;;;39.47;6.83;;;;;;;15.72;100.00;101439.69;4934665;29;20979;-71
2021/04/29 08:06:32;;;;;;;6.27;4.90;;;;;;;15.72;100.00;101434.38;4931602;29;20445;-69
2021/04/29 08:08:58;;;;;;;9.33;5.37;;;;;;;15.76;100.00;101430.50;4933155;29;20467;-69
2021/04/29 08:11:24;;;;;;;9.73;6.00;;;;;;;15.73;100.00;101438.72;4936086;29;20601;-69
2021/04/29 08:13:52;;;;;;;8.60;5.10;;;;;;;15.64;100.00;101439.41;4933618;29;20196;-69
2021/04/29 08:16:19;;;;;;;8.53;6.00;;;;;;;15.65;100.00;101447.25;4933681;29;20961;-69
2021/04/29 08:18:44;;;;;;;7.63;4.90;;;;;;;15.73;100.00;101442.19;4932799;29;20472;-68
2021/04/29 08:21:10;;;;;;;8.27;5.87;;;;;;;15.85;100.00;101432.44;4931556;29;20425;-69
2021/04/29 08:23:36;;;;;;;8.23;5.30;;;;;;;15.92;100.00;101430.16;4932505;29;20195;-69
2021/04/29 08:26:02;;;;;;;9.10;5.27;;;;;;;15.93;100.00;101429.19;4931041;29;20173;-69
2021/04/29 08:28:28;;;;;;;8.03;6.20;;;;;;;16.06;100.00;101424.63;4930503;29;20558;-70
2021/04/29 08:30:53;;;;;;;18.73;5.77;;;;;;;16.19;100.00;101417.38;4930440;29;20504;-69
2021/04/29 08:33:19;;;;;;;18.13;6.90;;;;;;;16.27;100.00;101417.63;4930801;29;20192;-69
2021/04/29 08:35:44;;;;;;;7.17;5.00;;;;;;;16.26;100.00;101417.75;4931850;29;20165;-68
2021/04/29 08:38:10;;;;;;;15.27;4.87;;;;;;;16.32;100.00;101428.72;4931696;29;20177;-70
2021/04/29 08:40:35;;;;;;;10.57;5.70;;;;;;;16.40;100.00;101429.88;4931342;29;20721;-70
2021/04/29 08:43:01;;;;;;;9.50;5.60;;;;;;;16.34;100.00;101420.63;4932074;29;20180;-70
2021/04/29 08:45:27;;;;;;;8.73;4.77;;;;;;;16.38;100.00;101428.19;4930467;29;20203;-70
2021/04/29 08:47:54;;;;;;;8.03;5.73;;;;;;;16.55;100.00;101420.69;4931823;29;20262;-70
2021/04/29 08:50:21;;;;;;;8.43;4.73;;;;;;;16.55;100.00;101426.00;4931973;29;20618;-70
2021/04/29 08:52:47;;;;;;;8.40;4.77;;;;;;;16.53;100.00;101420.81;4931486;29;20405;-69
2021/04/29 08:55:17;;;;;;;6.80;5.00;;;;;;;16.49;100.00;101426.50;4931594;29;20428;-69
2021/04/29 08:57:44;;;;;;;9.73;5.50;;;;;;;16.49;100.00;101426.50;4934609;29;20442;-70
2021/04/29 09:00:11;;;;;;;8.40;5.00;;;;;;;16.49;100.00;101422.06;4934529;29;20493;-69
2021/04/29 09:02:38;;;;;;;9.53;5.47;;;;;;;16.49;100.00;101422.06;4935691;29;20440;-70
2021/04/29 09:05:13;;;;;;;35.47;6.03;;;;;;;16.41;100.00;101426.28;4934561;29;20428;-69
2021/04/29 09:07:39;;;;;;;10.20;6.47;;;;;;;16.52;100.00;101426.25;4935167;29;20555;-70
2021/04/29 09:10:07;;;;;;;9.23;4.90;;;;;;;16.55;100.00;101421.56;4934782;29;20488;-70
2021/04/29 09:12:44;;;;;;;10.50;6.10;;;;;;;16.72;100.00;101428.16;4934418;29;20421;-70
2021/04/29 09:15:25;;;;;;;9.97;5.43;;;;;;;16.69;100.00;101428.41;4930663;29;20868;-70
2021/04/29 09:18:18;;;;;;;7.60;4.63;;;;;;;16.68;100.00;101426.69;4930315;29;20451;-69
2021/04/29 09:20:53;;;;;;;12.27;5.47;;;;;;;16.81;100.00;101421.25;4935724;29;20948;-69
2021/04/29 09:23:24;;;;;;;10.93;5.07;;;;;;;16.72;100.00;101416.72;4936660;29;20750;-69
2021/04/29 09:25:54;;;;;;;11.63;5.87;;;;;;;16.65;100.00;101411.03;4955870;29;20786;-70
2021/04/29 09:28:31;;;;;;;9.03;4.87;;;;;;;16.74;100.00;101412.13;4953558;29;20455;-69
2021/04/29 09:31:02;;;;;;;7.93;5.30;;;;;;;16.80;100.00;101404.50;4935930;29;20431;-70
2021/04/29 09:33:37;;;;;;;11.80;5.37;;;;;;;16.76;100.00;101405.72;4936240;29;20480;-71
2021/04/29 09:36:04;;;;;;;12.50;6.20;;;;;;;16.83;100.00;101401.56;4943247;29;20427;-69
2021/04/29 09:38:40;;;;;;;7.47;4.70;;;;;;;16.85;100.00;101402.31;4936772;29;21015;-68
2021/04/29 09:41:07;;;;;;;7.50;5.60;;;;;;;16.80;100.00;101401.00;4936152;29;20420;-69
2021/04/29 09:43:34;;;;;;;9.80;6.10;;;;;;;16.89;100.00;101398.44;4935974;29;20453;-69
2021/04/29 09:46:02;;;;;;;9.60;5.37;;;;;;;16.98;100.00;101393.31;4932149;29;20440;-70
2021/04/29 09:48:36;;;;;;;11.20;6.07;;;;;;;17.07;100.00;101388.06;4936058;29;20999;-71
2021/04/29 09:51:02;;;;;;;7.10;5.30;;;;;;;17.16;100.00;101394.44;4935539;29;20421;-72
2021/04/29 09:53:38;;;;;;;8.20;5.03;;;;;;;17.02;100.00;101400.06;4936531;29;20405;-70
2021/04/29 09:56:09;;;;;;;8.93;5.10;;;;;;;17.20;100.00;101399.34;4928658;29;20221;-71
2021/04/29 09:58:35;;;;;;;11.17;5.33;;;;;;;17.27;100.00;101397.03;4936040;29;20398;-70
2021/04/29 10:01:00;;;;;;;7.50;5.53;;;;;;;17.22;100.00;101393.91;4934868;29;20414;-69
2021/04/29 10:03:26;;;;;;;10.40;5.30;;;;;;;17.33;100.00;101396.53;4935942;29;20421;-70
2021/04/29 10:05:54;;;;;;;10.93;6.10;;;;;;;17.37;100.00;101391.78;4934808;29;20180;-72
2021/04/29 10:08:26;;;;;;;9.47;5.97;;;;;;;17.44;100.00;101387.63;4933399;29;20259;-70
2021/04/29 10:10:55;;;;;;;14.10;6.10;;;;;;;17.44;100.00;101393.78;4935435;29;20428;-71
2021/04/29 10:13:24;;;;;;;7.13;5.07;;;;;;;17.32;100.00;101388.69;4938713;29;20425;-71
2021/04/29 10:15:50;;;;;;;8.00;6.00;;;;;;;17.58;100.00;101386.44;4934816;29;20409;-71
2021/04/29 10:18:16;;;;;;;8.70;5.50;;;;;;;17.48;100.00;101384.59;4935164;29;20493;-72
2021/04/29 10:20:48;;;;;;;7.90;5.63;;;;;;;17.67;100.00;101394.47;4934580;29;20445;-72
2021/04/29 10:23:18;;;;;;;9.37;5.77;;;;;;;17.75;100.00;101393.84;4933004;29;20252;-72
2021/04/29 10:25:51;;;;;;;9.33;6.00;;;;;;;17.77;100.00;101397.22;4935754;29;20484;-72
2021/04/29 10:28:28;;;;;;;8.20;5.23;;;;;;;17.75;100.00;101400.00;4934663;29;20472;-70
2021/04/29 10:30:53;;;;;;;7.40;4.40;;;;;;;17.76;100.00;101403.50;4935170;29;20475;-69
2021/04/29 10:33:20;;;;;;;9.40;4.77;;;;;;;17.61;100.00;101396.84;4925382;29;20452;-71
2021/04/29 10:35:49;;;;;;;6.50;5.47;;;;;;;18.08;100.00;101398.03;4934417;29;20161;-73
2021/04/29 10:38:28;;;;;;;8.27;4.63;;;;;;;18.30;100.00;101386.34;4934444;29;20450;-70
2021/04/29 10:40:56;;;;;;;6.30;4.90;;;;;;;18.40;100.00;101386.38;4921633;29;20433;-71
2021/04/29 10:43:37;;;;;;;7.30;4.67;;;;;;;18.66;100.00;101384.88;4933706;29;20417;-71
2021/04/29 10:46:05;;;;;;;10.23;5.30;;;;;;;18.68;100.00;101377.59;4934906;29;20456;-70
2021/04/29 10:48:34;;;;;;;6.57;4.53;;;;;;;18.71;100.00;101382.66;4934225;29;20825;-70
2021/04/29 10:51:11;;;;;;;8.67;5.00;;;;;;;18.64;100.00;101376.16;4934136;29;20405;-70
2021/04/29 10:53:39;;;;;;;9.17;4.43;;;;;;;18.46;100.00;101365.38;4933636;29;20432;-74
2021/04/29 10:56:06;;;;;;;10.20;5.50;;;;;;;18.29;100.00;101374.88;4934242;29;20551;-75
2021/04/29 10:58:32;;;;;;;8.60;4.87;;;;;;;18.49;100.00;101374.88;4932676;29;20429;-72
2021/04/29 11:01:13;;;;;;;9.67;5.50;;;;;;;18.06;100.00;101376.06;4934646;29;20409;-73
2021/04/29 11:03:41;;;;;;;9.27;5.33;;;;;;;18.15;100.00;101377.06;4934241;29;20405;-71
2021/04/29 11:06:10;;;;;;;11.30;5.50;;;;;;;18.41;100.00;101372.91;4934244;29;20808;-73
2021/04/29 11:08:47;;;;;;;7.13;5.10;;;;;;;18.68;100.00;101382.94;4933872;29;20463;-71
2021/04/29 11:11:25;;;;;;;9.07;6.23;;;;;;;18.83;100.00;101375.38;4934313;29;20435;-73